Time;durP1;ratioP1;P1;durP2;ratioP2;P2;SDS_P1;SDS_P2;PMS_P1;PMS_P2;Temp;Humidity;BMP_temperature;BMP_pressure;BME280_temperature;BME280_humidity;BME280_pressure;Samples;Min_cycle;Max_cycle;Signal;HPM_P1;HPM_P2
2023/06/26 00:02:25;;;;;;;6.40;5.80;;;;;;;;;;6210550;23;20023;-84
2023/06/26 00:04:54;;;;;;;6.13;5.53;;;;;;;;;;6209490;23;20048;-84
2023/06/26 00:07:20;;;;;;;6.57;5.97;;;;;;;;;;6211019;23;20017;-84
2023/06/26 00:09:46;;;;;;;5.80;5.20;;;;;;;;;;6210736;23;20012;-84
2023/06/26 00:12:12;;;;;;;5.90;5.25;;;;;;;;;;6210060;23;20020;-84
2023/06/26 00:14:38;;;;;;;6.05;5.38;;;;;;;;;;6210735;23;20016;-84
2023/06/26 00:17:04;;;;;;;7.32;6.55;;;;;;;;;;6210060;23;20036;-84
2023/06/26 00:19:31;;;;;;;6.57;5.82;;;;;;;;;;6210351;23;20066;-84
2023/06/26 00:21:57;;;;;;;6.13;5.53;;;;;;;;;;6209395;23;20342;-84
2023/06/26 00:24:23;;;;;;;6.18;5.10;;;;;;;;;;6210484;23;20370;-84
2023/06/26 00:26:49;;;;;;;5.28;4.78;;;;;;;;;;6209319;23;20045;-84
2023/06/26 00:29:15;;;;;;;6.50;5.90;;;;;;;;;;6210150;23;20020;-84
2023/06/26 00:31:41;;;;;;;6.07;5.47;;;;;;;;;;6210661;23;20019;-84
2023/06/26 00:34:07;;;;;;;6.40;5.50;;;;;;;;;;6210447;23;20493;-84
2023/06/26 00:36:33;;;;;;;6.10;4.93;;;;;;;;;;6209270;23;20024;-84
2023/06/26 00:38:59;;;;;;;6.80;5.13;;;;;;;;;;6209198;23;20029;-84
2023/06/26 00:41:25;;;;;;;6.40;5.80;;;;;;;;;;6210294;23;20410;-84
2023/06/26 00:43:51;;;;;;;6.43;5.82;;;;;;;;;;6210711;23;20013;-84
2023/06/26 00:46:17;;;;;;;7.88;6.03;;;;;;;;;;6210139;23;20064;-84
2023/06/26 00:48:44;;;;;;;6.15;5.55;;;;;;;;;;6210794;23;20021;-84
2023/06/26 00:51:10;;;;;;;7.03;5.68;;;;;;;;;;6210549;23;20051;-84
2023/06/26 00:53:36;;;;;;;5.57;5.05;;;;;;;;;;6209521;23;20402;-84
2023/06/26 00:56:03;;;;;;;7.05;6.35;;;;;;;;;;6211291;23;20016;-84
2023/06/26 00:58:29;;;;;;;6.75;6.15;;;;;;;;;;6209645;23;20438;-84
2023/06/26 01:00:55;;;;;;;6.85;6.25;;;;;;;;;;6210663;23;20019;-84
2023/06/26 01:03:23;;;;;;;7.97;6.00;;;;;;;;;;6209257;23;20023;-83
2023/06/26 01:05:50;;;;;;;7.47;6.75;;;;;;;;;;6208835;23;20024;-84
2023/06/26 01:08:17;;;;;;;7.30;5.82;;;;;;;;;;6208956;23;20017;-84
2023/06/26 01:10:43;;;;;;;6.57;5.82;;;;;;;;;;6210488;23;20085;-84
2023/06/26 01:13:09;;;;;;;7.50;6.78;;;;;;;;;;6210543;23;20097;-85
2023/06/26 01:15:35;;;;;;;7.53;6.20;;;;;;;;;;6211138;23;20016;-84
2023/06/26 01:18:03;;;;;;;6.55;5.88;;;;;;;;;;6210202;23;20024;-84
2023/06/26 01:20:34;;;;;;;7.28;5.93;;;;;;;;;;6208952;23;20024;-84
2023/06/26 01:23:12;;;;;;;7.20;6.30;;;;;;;;;;6210620;23;20354;-84
2023/06/26 01:25:47;;;;;;;8.55;6.93;;;;;;;;;;6210769;23;20008;-84
2023/06/26 01:28:14;;;;;;;7.70;6.78;;;;;;;;;;6210000;23;20012;-84
2023/06/26 01:30:43;;;;;;;6.25;5.65;;;;;;;;;;6210320;23;20012;-84
2023/06/26 01:33:09;;;;;;;8.02;6.65;;;;;;;;;;6212506;23;20013;-84
2023/06/26 01:35:36;;;;;;;9.73;7.13;;;;;;;;;;6185617;23;20016;-84
2023/06/26 01:38:15;;;;;;;6.45;5.90;;;;;;;;;;6210917;23;20027;-84
2023/06/26 01:40:41;;;;;;;7.18;6.38;;;;;;;;;;6211560;23;20135;-83
2023/06/26 01:43:11;;;;;;;7.20;6.10;;;;;;;;;;6212369;23;20590;-84
2023/06/26 01:45:37;;;;;;;7.00;6.30;;;;;;;;;;6213090;23;20058;-84
2023/06/26 01:48:04;;;;;;;6.60;5.80;;;;;;;;;;6211925;23;20017;-84
2023/06/26 01:50:32;;;;;;;6.75;5.88;;;;;;;;;;6212930;23;20008;-84
2023/06/26 01:53:07;;;;;;;6.93;6.22;;;;;;;;;;6210776;23;20048;-84
2023/06/26 01:55:35;;;;;;;8.90;6.53;;;;;;;;;;6211435;23;20286;-84
2023/06/26 01:58:02;;;;;;;7.13;6.43;;;;;;;;;;6212334;23;20020;-84
2023/06/26 02:00:28;;;;;;;7.47;6.45;;;;;;;;;;6212146;23;20102;-84
2023/06/26 02:02:54;;;;;;;6.50;5.85;;;;;;;;;;6211933;23;20358;-84
2023/06/26 02:05:20;;;;;;;7.07;6.38;;;;;;;;;;6211612;23;20024;-84
2023/06/26 02:07:46;;;;;;;7.10;6.40;;;;;;;;;;6212552;23;20009;-83
2023/06/26 02:10:12;;;;;;;6.93;6.32;;;;;;;;;;6209333;23;20008;-84
2023/06/26 02:12:38;;;;;;;7.47;6.45;;;;;;;;;;6212612;23;20327;-84
2023/06/26 02:15:05;;;;;;;9.77;6.97;;;;;;;;;;6212414;23;20015;-84
2023/06/26 02:17:31;;;;;;;6.88;6.18;;;;;;;;;;6212128;23;20063;-84
2023/06/26 02:19:57;;;;;;;6.90;6.20;;;;;;;;;;6210524;23;20016;-83
2023/06/26 02:22:23;;;;;;;7.28;6.28;;;;;;;;;;6209943;23;20055;-84
2023/06/26 02:24:49;;;;;;;9.57;7.78;;;;;;;;;;6211931;23;20399;-84
2023/06/26 02:27:15;;;;;;;6.80;5.63;;;;;;;;;;6211990;23;20346;-84
2023/06/26 02:29:41;;;;;;;7.60;6.25;;;;;;;;;;6212374;23;20016;-84
2023/06/26 02:32:07;;;;;;;7.63;6.93;;;;;;;;;;6210597;23;20024;-84
2023/06/26 02:34:33;;;;;;;7.45;6.63;;;;;;;;;;6210169;23;20017;-83
2023/06/26 02:37:00;;;;;;;8.07;6.97;;;;;;;;;;6211813;23;20024;-84
2023/06/26 02:39:26;;;;;;;7.00;6.30;;;;;;;;;;6208479;23;20021;-83
2023/06/26 02:41:52;;;;;;;7.45;6.65;;;;;;;;;;6209790;23;20020;-83
2023/06/26 02:44:18;;;;;;;7.00;6.30;;;;;;;;;;6211858;23;20013;-83
2023/06/26 02:46:44;;;;;;;6.78;6.05;;;;;;;;;;6211988;23;20016;-84
2023/06/26 02:49:10;;;;;;;8.88;6.47;;;;;;;;;;6212028;23;20051;-83
2023/06/26 02:51:37;;;;;;;8.05;6.53;;;;;;;;;;6212421;23;20375;-84
2023/06/26 02:54:03;;;;;;;7.70;6.90;;;;;;;;;;6211094;23;20017;-84
2023/06/26 02:56:29;;;;;;;7.05;6.30;;;;;;;;;;6211031;23;20016;-84
2023/06/26 02:58:58;;;;;;;9.57;7.18;;;;;;;;;;6211785;23;20024;-84
2023/06/26 03:01:24;;;;;;;7.60;6.40;;;;;;;;;;6211071;23;20051;-84
2023/06/26 03:03:50;;;;;;;6.28;5.65;;;;;;;;;;6211876;23;20329;-84
2023/06/26 03:06:16;;;;;;;9.05;7.32;;;;;;;;;;6211030;23;20044;-84
2023/06/26 03:08:42;;;;;;;7.38;6.65;;;;;;;;;;6209632;23;20064;-84
2023/06/26 03:11:08;;;;;;;8.90;7.60;;;;;;;;;;6209698;23;20012;-83
2023/06/26 03:13:35;;;;;;;9.25;8.30;;;;;;;;;;6211185;23;20062;-84
2023/06/26 03:16:01;;;;;;;8.68;7.75;;;;;;;;;;6211564;23;20017;-84
2023/06/26 03:18:27;;;;;;;9.05;8.00;;;;;;;;;;6211348;23;20020;-83
2023/06/26 03:20:54;;;;;;;8.95;8.05;;;;;;;;;;6211291;23;20095;-83
2023/06/26 03:23:20;;;;;;;11.30;8.50;;;;;;;;;;6209146;23;20021;-83
2023/06/26 03:25:46;;;;;;;8.63;7.05;;;;;;;;;;6210769;23;20015;-83
2023/06/26 03:28:12;;;;;;;9.30;8.10;;;;;;;;;;6209629;23;20016;-84
2023/06/26 03:30:38;;;;;;;9.02;8.05;;;;;;;;;;6211867;23;20031;-83
2023/06/26 03:33:04;;;;;;;9.63;8.68;;;;;;;;;;6211662;23;20454;-83
2023/06/26 03:35:30;;;;;;;9.57;8.57;;;;;;;;;;6211553;23;20016;-83
2023/06/26 03:37:56;;;;;;;11.15;8.63;;;;;;;;;;6209225;23;20084;-82
2023/06/26 03:40:22;;;;;;;10.25;9.13;;;;;;;;;;6210146;23;20462;-83
2023/06/26 03:42:48;;;;;;;10.27;9.27;;;;;;;;;;6208906;23;20096;-83
2023/06/26 03:45:14;;;;;;;9.32;8.30;;;;;;;;;;6209186;23;20458;-84
2023/06/26 03:47:40;;;;;;;9.88;8.90;;;;;;;;;;6211336;23;20050;-83
2023/06/26 03:50:06;;;;;;;10.00;8.13;;;;;;;;;;6211075;23;20066;-82
2023/06/26 03:52:33;;;;;;;8.32;7.45;;;;;;;;;;6210669;23;20013;-82
2023/06/26 03:54:59;;;;;;;8.30;7.07;;;;;;;;;;6211590;23;20449;-83
2023/06/26 03:57:25;;;;;;;9.73;7.32;;;;;;;;;;6208183;23;20092;-83
2023/06/26 03:59:51;;;;;;;9.38;6.45;;;;;;;;;;6211191;23;20094;-83
2023/06/26 04:02:17;;;;;;;7.63;6.78;;;;;;;;;;6211132;23;20736;-83
2023/06/26 04:04:43;;;;;;;9.82;7.45;;;;;;;;;;6211648;23;20023;-82
2023/06/26 04:07:09;;;;;;;9.30;6.70;;;;;;;;;;6210253;23;20039;-83
2023/06/26 04:09:35;;;;;;;8.88;5.22;;;;;;;;;;6211402;23;20053;-84
2023/06/26 04:12:01;;;;;;;7.25;4.97;;;;;;;;;;6208143;23;20012;-83
2023/06/26 04:14:27;;;;;;;6.82;5.90;;;;;;;;;;6210393;23;20013;-83
2023/06/26 04:16:53;;;;;;;5.90;5.25;;;;;;;;;;6208734;23;20024;-83
2023/06/26 04:19:19;;;;;;;8.40;5.68;;;;;;;;;;6210164;23;20070;-83
2023/06/26 04:21:45;;;;;;;7.43;5.63;;;;;;;;;;6209307;23;20017;-83
2023/06/26 04:24:11;;;;;;;8.75;5.68;;;;;;;;;;6211281;23;20047;-83
2023/06/26 04:26:38;;;;;;;7.28;5.60;;;;;;;;;;6210731;23;20013;-83
2023/06/26 04:29:04;;;;;;;7.50;5.35;;;;;;;;;;6210661;23;20031;-83
2023/06/26 04:31:30;;;;;;;7.20;5.20;;;;;;;;;;6210899;23;20013;-83
2023/06/26 04:33:57;;;;;;;6.30;5.53;;;;;;;;;;6211226;23;20023;-83
2023/06/26 04:36:28;;;;;;;9.73;5.18;;;;;;;;;;6209964;23;20350;-83
2023/06/26 04:38:55;;;;;;;7.22;5.90;;;;;;;;;;6210940;23;20012;-82
2023/06/26 04:41:21;;;;;;;6.75;5.80;;;;;;;;;;6210127;23;20019;-82
2023/06/26 04:43:47;;;;;;;8.13;5.22;;;;;;;;;;6208490;23;20087;-81
2023/06/26 04:46:13;;;;;;;8.23;6.05;;;;;;;;;;6210681;23;20404;-83
2023/06/26 04:48:39;;;;;;;9.63;5.45;;;;;;;;;;6209145;23;20044;-83
2023/06/26 04:51:05;;;;;;;10.27;5.78;;;;;;;;;;6208780;23;20017;-85
2023/06/26 04:53:31;;;;;;;8.85;5.30;;;;;;;;;;6208702;23;20015;-84
2023/06/26 04:55:57;;;;;;;5.93;4.80;;;;;;;;;;6204884;23;20342;-84
2023/06/26 04:58:23;;;;;;;12.35;7.25;;;;;;;;;;6210171;23;20379;-85
2023/06/26 05:00:49;;;;;;;8.73;6.10;;;;;;;;;;6210188;23;20051;-84
2023/06/26 05:03:16;;;;;;;11.70;5.43;;;;;;;;;;6211101;23;20012;-84
2023/06/26 05:05:42;;;;;;;15.45;8.00;;;;;;;;;;6211177;23;20083;-91
2023/06/26 05:08:19;;;;;;;11.55;5.90;;;;;;;;;;6211789;23;20024;-84
2023/06/26 05:10:45;;;;;;;8.40;5.60;;;;;;;;;;6207458;23;20017;-87
2023/06/26 05:13:14;;;;;;;11.07;6.03;;;;;;;;;;6209980;23;20008;-87
2023/06/26 05:15:41;;;;;;;10.50;6.32;;;;;;;;;;6211836;23;20338;-85
2023/06/26 05:18:07;;;;;;;11.82;6.03;;;;;;;;;;6213211;23;20017;-85
2023/06/26 05:20:34;;;;;;;12.73;7.22;;;;;;;;;;6184031;23;20078;-84
2023/06/26 05:23:01;;;;;;;7.95;5.20;;;;;;;;;;6210637;23;20398;-85
2023/06/26 05:25:28;;;;;;;11.75;5.47;;;;;;;;;;6209716;23;20386;-86
2023/06/26 05:27:55;;;;;;;8.10;5.43;;;;;;;;;;6209974;23;20008;-86
2023/06/26 05:30:21;;;;;;;11.75;6.90;;;;;;;;;;6210586;23;20135;-88
2023/06/26 05:32:48;;;;;;;9.55;5.78;;;;;;;;;;6212361;23;20062;-91
2023/06/26 05:35:14;;;;;;;11.40;6.55;;;;;;;;;;6211682;23;20024;-95
2023/06/26 05:37:41;;;;;;;9.23;5.50;;;;;;;;;;6213812;23;20013;-86
2023/06/26 05:40:07;;;;;;;9.35;5.07;;;;;;;;;;6210716;23;20009;-86
2023/06/26 05:42:34;;;;;;;8.85;5.07;;;;;;;;;;6212511;23;20021;-85
2023/06/26 05:45:00;;;;;;;7.95;5.00;;;;;;;;;;6211674;23;20013;-84
2023/06/26 05:47:26;;;;;;;9.23;4.90;;;;;;;;;;6212151;23;20013;-84
2023/06/26 05:49:52;;;;;;;10.15;5.32;;;;;;;;;;6209488;23;20012;-88
2023/06/26 05:52:18;;;;;;;8.68;5.80;;;;;;;;;;6212164;23;20016;-89
2023/06/26 05:54:45;;;;;;;8.07;4.93;;;;;;;;;;6209030;23;20059;-85
2023/06/26 05:57:13;;;;;;;6.72;5.10;;;;;;;;;;6211570;23;20016;-86
2023/06/26 05:59:41;;;;;;;10.07;5.50;;;;;;;;;;6212967;23;20012;-84
2023/06/26 06:02:07;;;;;;;7.95;6.25;;;;;;;;;;6212517;23;20046;-86
2023/06/26 06:04:34;;;;;;;7.53;5.20;;;;;;;;;;6212104;23;20021;-85
2023/06/26 06:07:00;;;;;;;9.68;5.25;;;;;;;;;;6212907;23;20078;-93
2023/06/26 06:09:26;;;;;;;10.57;4.80;;;;;;;;;;6210200;23;20092;-89
2023/06/26 06:11:52;;;;;;;6.38;4.60;;;;;;;;;;6211386;23;20083;-92
2023/06/26 06:14:18;;;;;;;8.55;4.32;;;;;;;;;;6206019;23;20012;-94
2023/06/26 06:16:44;;;;;;;7.22;4.32;;;;;;;;;;6211984;23;20016;-89
2023/06/26 06:19:12;;;;;;;5.30;3.40;;;;;;;;;;6211176;23;20040;-87
2023/06/26 06:21:38;;;;;;;4.93;2.72;;;;;;;;;;6210260;23;20063;-86
2023/06/26 06:24:06;;;;;;;7.00;2.83;;;;;;;;;;6210887;23;20051;-89
2023/06/26 06:26:32;;;;;;;5.53;2.75;;;;;;;;;;6212868;23;20021;-87
2023/06/26 06:28:58;;;;;;;5.47;2.83;;;;;;;;;;6210311;23;20044;-89
2023/06/26 06:31:24;;;;;;;3.92;2.22;;;;;;;;;;6211407;23;20079;-88
2023/06/26 06:33:50;;;;;;;4.40;2.38;;;;;;;;;;6210314;23;20052;-87
2023/06/26 06:36:16;;;;;;;3.33;2.05;;;;;;;;;;6209834;23;20079;-91
2023/06/26 06:38:45;;;;;;;4.65;2.40;;;;;;;;;;6215047;23;20070;-94
2023/06/26 06:41:12;;;;;;;2.72;2.00;;;;;;;;;;6212875;23;20024;-91
2023/06/26 06:43:38;;;;;;;3.17;2.05;;;;;;;;;;6208391;23;20035;-86
2023/06/26 06:46:05;;;;;;;4.60;1.90;;;;;;;;;;6209599;23;20030;-86
2023/06/26 06:48:31;;;;;;;2.92;1.60;;;;;;;;;;6208854;23;20008;-91
2023/06/26 06:50:57;;;;;;;1.70;0.98;;;;;;;;;;6183534;23;20354;-89
2023/06/26 06:53:23;;;;;;;3.78;1.70;;;;;;;;;;6208321;23;20047;-86
2023/06/26 06:55:49;;;;;;;2.88;1.35;;;;;;;;;;6212231;23;20446;-95
2023/06/26 06:58:19;;;;;;;4.93;1.65;;;;;;;;;;6209896;23;20346;-90
2023/06/26 07:00:45;;;;;;;4.60;1.60;;;;;;;;;;6211577;23;20454;-86
2023/06/26 07:03:12;;;;;;;2.92;1.50;;;;;;;;;;6212248;23;20366;-86
2023/06/26 07:05:38;;;;;;;4.07;1.63;;;;;;;;;;6212449;23;20086;-90
2023/06/26 07:08:04;;;;;;;4.72;1.60;;;;;;;;;;6212692;23;20067;-87
2023/06/26 07:10:30;;;;;;;4.47;1.58;;;;;;;;;;6211019;23;20071;-90
2023/06/26 07:12:56;;;;;;;4.30;1.40;;;;;;;;;;6211974;23;20088;-86
2023/06/26 07:15:22;;;;;;;3.65;1.65;;;;;;;;;;6210540;23;20028;-87
2023/06/26 07:17:48;;;;;;;2.95;1.25;;;;;;;;;;6210573;23;20016;-88
2023/06/26 07:20:17;;;;;;;3.22;1.42;;;;;;;;;;6209630;23;20012;-85
2023/06/26 07:22:47;;;;;;;3.28;1.50;;;;;;;;;;6211133;23;20017;-87
2023/06/26 07:25:13;;;;;;;2.90;1.55;;;;;;;;;;6210466;23;20059;-85
2023/06/26 07:27:40;;;;;;;6.05;1.13;;;;;;;;;;6209546;23;20020;-88
2023/06/26 07:30:08;;;;;;;3.80;1.88;;;;;;;;;;6210434;23;20056;-86
2023/06/26 07:32:34;;;;;;;3.95;1.50;;;;;;;;;;6208841;23;20083;-93
2023/06/26 07:35:00;;;;;;;3.65;1.50;;;;;;;;;;6210251;23;20048;-88
2023/06/26 07:37:26;;;;;;;3.10;1.88;;;;;;;;;;6209740;23;20052;-87
2023/06/26 07:39:52;;;;;;;3.75;1.30;;;;;;;;;;6209167;23;20232;-91
2023/06/26 07:42:18;;;;;;;3.38;1.50;;;;;;;;;;6207864;23;20027;-87
2023/06/26 07:44:45;;;;;;;3.28;1.40;;;;;;;;;;6208557;23;20343;-85
2023/06/26 07:47:11;;;;;;;2.63;1.58;;;;;;;;;;6210471;23;20020;-92
2023/06/26 07:49:38;;;;;;;4.90;1.50;;;;;;;;;;6208279;23;20012;-85
2023/06/26 07:52:05;;;;;;;2.75;1.45;;;;;;;;;;6211830;23;20048;-85
2023/06/26 07:54:31;;;;;;;3.25;1.48;;;;;;;;;;6212297;23;20008;-87
2023/06/26 07:56:59;;;;;;;1.38;1.10;;;;;;;;;;6205045;23;20069;-88
2023/06/26 07:59:26;;;;;;;1.52;1.00;;;;;;;;;;6179550;23;20023;-87
2023/06/26 08:01:52;;;;;;;2.85;1.38;;;;;;;;;;6207980;23;20094;-88
2023/06/26 08:04:20;;;;;;;1.73;1.05;;;;;;;;;;6205168;23;20415;-84
2023/06/26 08:06:46;;;;;;;2.42;1.42;;;;;;;;;;6206512;23;20044;-85
2023/06/26 08:09:12;;;;;;;2.55;1.20;;;;;;;;;;6206328;23;20016;-90
2023/06/26 08:11:39;;;;;;;2.63;1.40;;;;;;;;;;6207730;23;20009;-91
2023/06/26 08:14:05;;;;;;;1.58;0.90;;;;;;;;;;6206490;23;20347;-86
2023/06/26 08:16:31;;;;;;;2.08;0.90;;;;;;;;;;6205265;23;20024;-93
2023/06/26 08:18:57;;;;;;;3.83;1.40;;;;;;;;;;6206975;23;20017;-90
2023/06/26 08:21:23;;;;;;;1.92;1.17;;;;;;;;;;6205067;23;20074;-89
2023/06/26 08:23:49;;;;;;;3.90;1.13;;;;;;;;;;6205646;23;20017;-88
2023/06/26 08:26:15;;;;;;;1.65;1.15;;;;;;;;;;6201173;23;20097;-88
2023/06/26 08:28:41;;;;;;;1.48;0.80;;;;;;;;;;6206228;23;20334;-90
2023/06/26 08:31:07;;;;;;;3.08;1.45;;;;;;;;;;6211642;23;20009;-85
2023/06/26 08:33:33;;;;;;;2.10;1.27;;;;;;;;;;6210253;23;20029;-89
2023/06/26 08:35:59;;;;;;;2.50;1.30;;;;;;;;;;6209824;23;20074;-85
2023/06/26 08:38:25;;;;;;;2.22;0.93;;;;;;;;;;6209701;23;20342;-89
2023/06/26 08:40:51;;;;;;;2.78;1.30;;;;;;;;;;6209462;23;20027;-85
2023/06/26 08:43:17;;;;;;;2.25;0.90;;;;;;;;;;6211444;23;20036;-88
2023/06/26 08:45:43;;;;;;;2.63;1.48;;;;;;;;;;6212677;23;20099;-86
2023/06/26 08:48:09;;;;;;;2.50;1.20;;;;;;;;;;6209620;23;20371;-83
2023/06/26 08:50:35;;;;;;;1.77;1.20;;;;;;;;;;6209787;23;20087;-83
2023/06/26 08:53:21;;;;;;;4.25;1.27;;;;;;;;;;6209669;23;20329;-86
2023/06/26 08:55:49;;;;;;;3.50;1.55;;;;;;;;;;6209131;23;20067;-85
2023/06/26 08:58:15;;;;;;;3.75;1.42;;;;;;;;;;6208609;23;20016;-84
2023/06/26 09:00:42;;;;;;;1.90;1.63;;;;;;;;;;6207703;23;20442;-86
2023/06/26 09:03:09;;;;;;;3.28;1.27;;;;;;;;;;6207378;23;20024;-83
2023/06/26 09:05:36;;;;;;;2.30;1.48;;;;;;;;;;6209185;23;20020;-86
2023/06/26 09:08:02;;;;;;;3.80;1.58;;;;;;;;;;6208050;23;20008;-85
2023/06/26 09:10:28;;;;;;;2.25;1.30;;;;;;;;;;6208977;23;20342;-86
2023/06/26 09:12:57;;;;;;;1.85;1.10;;;;;;;;;;6207825;23;20017;-85
2023/06/26 09:15:24;;;;;;;3.10;1.40;;;;;;;;;;6209391;23;20021;-82
2023/06/26 09:17:50;;;;;;;4.88;1.35;;;;;;;;;;6208819;23;20016;-84
2023/06/26 09:20:16;;;;;;;2.47;1.50;;;;;;;;;;6208997;23;20099;-84
2023/06/26 09:22:43;;;;;;;2.42;1.58;;;;;;;;;;6207884;23;20057;-87
2023/06/26 09:25:09;;;;;;;2.78;1.75;;;;;;;;;;6208162;23;20334;-82
2023/06/26 09:27:36;;;;;;;3.55;1.58;;;;;;;;;;6209446;23;20122;-89
2023/06/26 09:30:09;;;;;;;5.07;2.38;;;;;;;;;;6207981;23;20021;-86
2023/06/26 09:32:36;;;;;;;1.80;1.40;;;;;;;;;;6208899;23;20044;-88
2023/06/26 09:35:03;;;;;;;4.38;1.77;;;;;;;;;;6208830;23;20070;-84
2023/06/26 09:37:29;;;;;;;3.22;1.95;;;;;;;;;;6208791;23;20390;-85
2023/06/26 09:39:55;;;;;;;3.90;1.77;;;;;;;;;;6209813;23;20024;-87
2023/06/26 09:42:21;;;;;;;3.67;1.48;;;;;;;;;;6207972;23;20015;-88
2023/06/26 09:44:51;;;;;;;3.28;1.88;;;;;;;;;;6205544;23;20017;-89
2023/06/26 09:47:17;;;;;;;3.58;1.70;;;;;;;;;;6208990;23;20016;-86
2023/06/26 09:49:43;;;;;;;2.70;1.60;;;;;;;;;;6209818;23;20047;-87
2023/06/26 09:52:10;;;;;;;4.63;1.40;;;;;;;;;;6207571;23;20179;-87
2023/06/26 09:54:36;;;;;;;4.82;2.20;;;;;;;;;;6207120;23;20071;-82
2023/06/26 09:57:08;;;;;;;2.13;1.55;;;;;;;;;;6210035;23;20156;-85
2023/06/26 09:59:35;;;;;;;2.53;1.55;;;;;;;;;;6209135;23;20333;-89
2023/06/26 10:02:01;;;;;;;4.47;1.60;;;;;;;;;;6207629;23;20024;-83
2023/06/26 10:04:31;;;;;;;3.28;1.80;;;;;;;;;;6209074;23;20044;-83
2023/06/26 10:06:58;;;;;;;2.88;1.35;;;;;;;;;;6208900;23;20031;-83
2023/06/26 10:09:24;;;;;;;2.45;1.30;;;;;;;;;;6206986;23;20056;-87
2023/06/26 10:11:54;;;;;;;1.73;1.63;;;;;;;;;;6208180;23;20082;-86
2023/06/26 10:14:25;;;;;;;2.92;1.75;;;;;;;;;;6208015;23;20031;-85
2023/06/26 10:16:51;;;;;;;5.38;1.83;;;;;;;;;;6208926;23;20075;-88
2023/06/26 10:19:23;;;;;;;1.95;1.42;;;;;;;;;;6208582;23;20017;-88
2023/06/26 10:21:50;;;;;;;2.92;1.45;;;;;;;;;;6209772;23;20016;-84
2023/06/26 10:24:17;;;;;;;3.45;1.52;;;;;;;;;;6206531;23;20028;-85
2023/06/26 10:26:45;;;;;;;4.68;2.15;;;;;;;;;;6209401;23;20021;-89
2023/06/26 10:29:12;;;;;;;2.03;1.27;;;;;;;;;;6208743;23;20012;-91
2023/06/26 10:31:39;;;;;;;1.85;1.50;;;;;;;;;;6209226;23;20016;-83
2023/06/26 10:34:05;;;;;;;1.85;1.30;;;;;;;;;;6207116;23;20024;-87
2023/06/26 10:36:32;;;;;;;7.15;2.03;;;;;;;;;;6207017;23;20024;-85
2023/06/26 10:38:59;;;;;;;9.38;2.25;;;;;;;;;;6207831;23;20016;-86
2023/06/26 10:41:26;;;;;;;5.95;1.85;;;;;;;;;;6208798;23;20012;-85
2023/06/26 10:44:13;;;;;;;2.28;1.80;;;;;;;;;;6206666;23;20433;-91
2023/06/26 10:46:55;;;;;;;3.20;1.67;;;;;;;;;;6206422;23;20051;-87
2023/06/26 10:49:25;;;;;;;3.33;2.22;;;;;;;;;;6207054;23;20329;-87
2023/06/26 10:51:51;;;;;;;2.95;1.50;;;;;;;;;;6206209;23;20091;-87
2023/06/26 10:54:18;;;;;;;3.40;1.70;;;;;;;;;;6206171;23;20055;-83
2023/06/26 10:56:44;;;;;;;6.07;2.08;;;;;;;;;;6207851;23;20082;-88
2023/06/26 10:59:15;;;;;;;2.58;1.65;;;;;;;;;;6208659;23;20051;-86
2023/06/26 11:01:45;;;;;;;2.95;1.60;;;;;;;;;;6209849;23;20032;-87
2023/06/26 11:04:11;;;;;;;2.75;1.30;;;;;;;;;;6207359;23;20017;-85
2023/06/26 11:06:41;;;;;;;3.47;1.63;;;;;;;;;;6208835;23;20013;-86
2023/06/26 11:09:07;;;;;;;2.55;1.65;;;;;;;;;;6207243;23;20016;-87
2023/06/26 11:11:52;;;;;;;2.13;1.35;;;;;;;;;;6209064;23;20044;-87
2023/06/26 11:14:19;;;;;;;4.22;1.50;;;;;;;;;;6206662;23;20023;-87
2023/06/26 11:16:45;;;;;;;2.30;1.10;;;;;;;;;;6207029;23;20509;-89
2023/06/26 11:19:11;;;;;;;2.90;1.60;;;;;;;;;;6208598;23;20023;-87
2023/06/26 11:21:38;;;;;;;2.97;1.33;;;;;;;;;;6208034;23;20087;-82
2023/06/26 11:24:05;;;;;;;3.33;1.48;;;;;;;;;;6208118;23;20335;-84
2023/06/26 11:26:31;;;;;;;1.75;1.27;;;;;;;;;;6207722;23;20017;-85
2023/06/26 11:28:57;;;;;;;4.25;1.60;;;;;;;;;;6208331;23;20019;-86
2023/06/26 11:31:27;;;;;;;2.60;1.30;;;;;;;;;;6208024;23;20029;-85
2023/06/26 11:33:54;;;;;;;3.65;1.40;;;;;;;;;;6206602;23;20021;-86
2023/06/26 11:36:20;;;;;;;3.83;1.40;;;;;;;;;;6204911;23;20013;-87
2023/06/26 11:38:46;;;;;;;4.95;1.48;;;;;;;;;;6207400;23;20087;-86
2023/06/26 11:41:17;;;;;;;4.20;1.40;;;;;;;;;;6206392;23;20028;-85
2023/06/26 11:43:43;;;;;;;2.92;1.60;;;;;;;;;;6207823;23;20448;-85
2023/06/26 11:46:09;;;;;;;1.40;1.30;;;;;;;;;;6204539;23;20017;-83
2023/06/26 11:48:35;;;;;;;2.67;1.58;;;;;;;;;;6206645;23;20009;-84
2023/06/26 11:51:01;;;;;;;6.03;1.73;;;;;;;;;;6180982;23;20009;-86
2023/06/26 11:53:27;;;;;;;2.60;1.35;;;;;;;;;;6207129;23;20446;-85
2023/06/26 11:55:53;;;;;;;2.35;1.48;;;;;;;;;;6207936;23;20064;-85
2023/06/26 11:58:19;;;;;;;1.98;1.13;;;;;;;;;;6207578;23;20360;-84
2023/06/26 12:00:45;;;;;;;2.58;1.40;;;;;;;;;;6208334;23;20016;-86
2023/06/26 12:03:11;;;;;;;2.78;0.98;;;;;;;;;;6180703;23;20015;-85
2023/06/26 12:05:37;;;;;;;2.10;1.05;;;;;;;;;;6206099;23;20020;-89
2023/06/26 12:08:06;;;;;;;3.90;1.50;;;;;;;;;;6206510;23;20086;-85
2023/06/26 12:10:32;;;;;;;1.55;0.80;;;;;;;;;;6207520;23;20363;-85
2023/06/26 12:13:01;;;;;;;3.65;1.13;;;;;;;;;;6205787;23;20016;-85
2023/06/26 12:15:28;;;;;;;5.38;1.25;;;;;;;;;;6207605;23;20020;-86
2023/06/26 12:17:54;;;;;;;2.17;0.90;;;;;;;;;;6207784;23;20024;-85
2023/06/26 12:20:25;;;;;;;2.35;0.85;;;;;;;;;;6204610;23;20020;-85
2023/06/26 12:22:51;;;;;;;2.58;1.05;;;;;;;;;;6207639;23;20334;-84
2023/06/26 12:25:24;;;;;;;4.22;1.20;;;;;;;;;;6206652;23;20315;-87
2023/06/26 12:27:50;;;;;;;4.25;1.30;;;;;;;;;;6207986;23;20077;-85
2023/06/26 12:30:16;;;;;;;3.28;1.15;;;;;;;;;;6206959;23;20013;-88
2023/06/26 12:32:46;;;;;;;3.53;1.15;;;;;;;;;;6207288;23;20076;-85
2023/06/26 12:35:12;;;;;;;1.75;0.80;;;;;;;;;;6207756;23;20677;-86
2023/06/26 12:37:42;;;;;;;2.33;1.08;;;;;;;;;;6206297;23;20133;-85
2023/06/26 12:40:18;;;;;;;3.55;1.33;;;;;;;;;;6207339;23;20379;-84
2023/06/26 12:42:46;;;;;;;2.95;1.05;;;;;;;;;;6211724;23;20044;-83
2023/06/26 12:45:14;;;;;;;3.88;1.42;;;;;;;;;;6210627;23;20023;-88
2023/06/26 12:47:43;;;;;;;3.28;1.02;;;;;;;;;;6209069;23;20087;-86
2023/06/26 12:50:09;;;;;;;2.80;1.00;;;;;;;;;;6208758;23;20020;-83
2023/06/26 12:52:35;;;;;;;2.25;1.10;;;;;;;;;;6207271;23;20013;-92
2023/06/26 12:55:01;;;;;;;6.30;1.80;;;;;;;;;;6208397;23;20019;-90
2023/06/26 12:57:27;;;;;;;3.20;0.85;;;;;;;;;;6207803;23;20024;-88
2023/06/26 12:59:53;;;;;;;4.13;1.58;;;;;;;;;;6207105;23;20311;-85
2023/06/26 13:02:20;;;;;;;2.08;0.93;;;;;;;;;;6204489;23;20032;-84
2023/06/26 13:04:46;;;;;;;5.55;1.52;;;;;;;;;;6208697;23;20015;-90
2023/06/26 13:07:12;;;;;;;3.78;1.38;;;;;;;;;;6207252;23;20040;-91
2023/06/26 13:09:38;;;;;;;2.92;1.60;;;;;;;;;;6208067;23;20036;-89
2023/06/26 13:12:05;;;;;;;2.92;1.00;;;;;;;;;;6208801;23;20017;-86
2023/06/26 13:14:31;;;;;;;2.30;0.93;;;;;;;;;;6209518;23;20019;-90
2023/06/26 13:16:57;;;;;;;3.17;1.48;;;;;;;;;;6208139;23;20321;-87
2023/06/26 13:19:23;;;;;;;0.88;0.63;;;;;;;;;;6206736;23;20099;-90
2023/06/26 13:21:49;;;;;;;3.13;1.02;;;;;;;;;;6207905;23;20067;-86
2023/06/26 13:24:16;;;;;;;0.82;0.60;;;;;;;;;;6208474;23;20055;-87
2023/06/26 13:26:42;;;;;;;0.82;0.50;;;;;;;;;;6208509;23;20088;-93
2023/06/26 13:29:08;;;;;;;1.90;0.63;;;;;;;;;;6207667;23;20399;-86
2023/06/26 13:31:34;;;;;;;3.83;0.70;;;;;;;;;;6210305;23;20020;-87
2023/06/26 13:34:00;;;;;;;5.07;1.00;;;;;;;;;;6206312;23;20016;-87
2023/06/26 13:36:26;;;;;;;2.88;1.20;;;;;;;;;;6209275;23;20032;-85
2023/06/26 13:38:55;;;;;;;1.60;0.70;;;;;;;;;;6207881;23;20083;-93
2023/06/26 13:41:22;;;;;;;3.47;0.93;;;;;;;;;;6208009;23;20397;-84
2023/06/26 13:43:48;;;;;;;4.70;1.40;;;;;;;;;;6209373;23;20020;-85
2023/06/26 13:46:14;;;;;;;2.45;0.90;;;;;;;;;;6207623;23;20012;-86
2023/06/26 13:48:40;;;;;;;1.83;1.02;;;;;;;;;;6208112;23;20015;-83
2023/06/26 13:51:06;;;;;;;2.33;0.90;;;;;;;;;;6210072;23;20016;-89
2023/06/26 13:53:32;;;;;;;3.90;1.25;;;;;;;;;;6209149;23;20446;-89
2023/06/26 13:55:58;;;;;;;2.55;0.90;;;;;;;;;;6209032;23;20279;-89
2023/06/26 13:58:26;;;;;;;2.42;0.80;;;;;;;;;;6209914;23;20083;-85
2023/06/26 14:00:53;;;;;;;2.85;1.17;;;;;;;;;;6206886;23;20409;-85
2023/06/26 14:03:19;;;;;;;3.30;1.33;;;;;;;;;;6207024;23;20023;-85
2023/06/26 14:05:45;;;;;;;3.47;0.70;;;;;;;;;;6208837;23;20025;-84
2023/06/26 14:08:11;;;;;;;3.55;0.80;;;;;;;;;;6209078;23;20044;-93
2023/06/26 14:10:38;;;;;;;2.35;0.70;;;;;;;;;;6210259;23;20024;-87
2023/06/26 14:13:04;;;;;;;1.88;0.95;;;;;;;;;;6208932;23;20017;-94
2023/06/26 14:15:30;;;;;;;5.10;0.98;;;;;;;;;;6208936;23;20012;-90
2023/06/26 14:17:56;;;;;;;5.03;1.27;;;;;;;;;;6208525;23;20036;-91
2023/06/26 14:20:22;;;;;;;1.63;0.95;;;;;;;;;;6209970;23;20023;-90
2023/06/26 14:22:49;;;;;;;1.55;0.60;;;;;;;;;;6207876;23;20016;-88
2023/06/26 14:25:15;;;;;;;2.00;0.73;;;;;;;;;;6210495;23;20075;-88
2023/06/26 14:27:41;;;;;;;2.65;1.00;;;;;;;;;;6207476;23;20091;-88
2023/06/26 14:30:08;;;;;;;2.13;1.00;;;;;;;;;;6207439;23;20013;-89
2023/06/26 14:32:34;;;;;;;2.65;1.02;;;;;;;;;;6207975;23;20067;-83
2023/06/26 14:35:00;;;;;;;4.32;0.82;;;;;;;;;;6209644;23;20036;-83
2023/06/26 14:37:27;;;;;;;1.67;1.13;;;;;;;;;;6209631;23;20058;-84
2023/06/26 14:39:53;;;;;;;2.85;0.98;;;;;;;;;;6207822;23;20420;-90
2023/06/26 14:42:19;;;;;;;2.70;0.98;;;;;;;;;;6208495;23;20013;-89